sensor_id;sensor_type;location;lat;lon;timestamp;pressure;altitude;pressure_sealevel;temperature;humidity
48810;BME280;40070;47.322;18.784;2023-06-04T00:01:51;1005.59;;;15.52;56.52
48810;BME280;40070;47.322;18.784;2023-06-04T00:03:53;1005.57;;;15.50;56.24
48810;BME280;40070;47.322;18.784;2023-06-04T00:05:56;1005.58;;;15.35;56.19
48810;BME280;40070;47.322;18.784;2023-06-04T00:07:58;1005.63;;;15.64;56.26
48810;BME280;40070;47.322;18.784;2023-06-04T00:10:01;1005.64;;;15.56;56.21
48810;BME280;40070;47.322;18.784;2023-06-04T00:12:03;1005.62;;;15.48;56.66
48810;BME280;40070;47.322;18.784;2023-06-04T00:14:06;1005.62;;;15.55;56.43
48810;BME280;40070;47.322;18.784;2023-06-04T00:16:08;1005.56;;;15.67;56.33
48810;BME280;40070;47.322;18.784;2023-06-04T00:18:11;1005.55;;;15.73;57.89
48810;BME280;40070;47.322;18.784;2023-06-04T00:20:13;1005.52;;;15.73;58.55
48810;BME280;40070;47.322;18.784;2023-06-04T00:22:16;1005.49;;;15.95;57.92
48810;BME280;40070;47.322;18.784;2023-06-04T00:24:18;1005.47;;;15.94;55.38
48810;BME280;40070;47.322;18.784;2023-06-04T00:26:21;1005.42;;;15.82;55.42
48810;BME280;40070;47.322;18.784;2023-06-04T00:28:23;1005.40;;;15.76;55.36
48810;BME280;40070;47.322;18.784;2023-06-04T00:30:26;1005.48;;;15.72;56.07
48810;BME280;40070;47.322;18.784;2023-06-04T00:32:28;1005.49;;;15.77;55.34
48810;BME280;40070;47.322;18.784;2023-06-04T00:34:31;1005.52;;;15.88;54.67
48810;BME280;40070;47.322;18.784;2023-06-04T00:36:33;1005.57;;;15.84;55.51
48810;BME280;40070;47.322;18.784;2023-06-04T00:38:36;1005.51;;;15.83;55.01
48810;BME280;40070;47.322;18.784;2023-06-04T00:40:38;1005.48;;;15.71;56.46
48810;BME280;40070;47.322;18.784;2023-06-04T00:42:41;1005.48;;;15.85;55.89
48810;BME280;40070;47.322;18.784;2023-06-04T00:44:43;1005.54;;;16.07;55.92
48810;BME280;40070;47.322;18.784;2023-06-04T00:46:46;1005.60;;;16.02;56.29
48810;BME280;40070;47.322;18.784;2023-06-04T00:48:48;1005.63;;;16.00;54.83
48810;BME280;40070;47.322;18.784;2023-06-04T00:50:51;1005.62;;;15.79;55.27
48810;BME280;40070;47.322;18.784;2023-06-04T00:52:53;1005.62;;;15.79;54.16
48810;BME280;40070;47.322;18.784;2023-06-04T00:54:56;1005.62;;;15.79;54.04
48810;BME280;40070;47.322;18.784;2023-06-04T00:56:59;1005.62;;;15.90;53.54
48810;BME280;40070;47.322;18.784;2023-06-04T00:59:01;1005.62;;;16.08;55.05
48810;BME280;40070;47.322;18.784;2023-06-04T01:01:04;1005.64;;;16.09;54.83
48810;BME280;40070;47.322;18.784;2023-06-04T01:03:10;1005.63;;;15.90;55.39
48810;BME280;40070;47.322;18.784;2023-06-04T01:05:29;1005.65;;;15.71;55.43
48810;BME280;40070;47.322;18.784;2023-06-04T01:07:35;1005.63;;;15.66;54.94
48810;BME280;40070;47.322;18.784;2023-06-04T01:09:37;1005.59;;;15.53;55.42
48810;BME280;40070;47.322;18.784;2023-06-04T01:11:41;1005.57;;;15.76;55.39
48810;BME280;40070;47.322;18.784;2023-06-04T01:13:43;1005.59;;;15.59;55.57
48810;BME280;40070;47.322;18.784;2023-06-04T01:15:45;1005.57;;;15.48;56.13
48810;BME280;40070;47.322;18.784;2023-06-04T01:17:49;1005.56;;;15.52;56.53
48810;BME280;40070;47.322;18.784;2023-06-04T01:20:02;1005.56;;;15.73;55.61
48810;BME280;40070;47.322;18.784;2023-06-04T01:22:10;1005.56;;;15.80;55.56
48810;BME280;40070;47.322;18.784;2023-06-04T01:24:12;1005.53;;;15.42;55.87
48810;BME280;40070;47.322;18.784;2023-06-04T01:26:15;1005.50;;;15.29;56.92
48810;BME280;40070;47.322;18.784;2023-06-04T01:28:18;1005.50;;;15.54;57.37
48810;BME280;40070;47.322;18.784;2023-06-04T01:30:23;1005.57;;;15.53;57.18
48810;BME280;40070;47.322;18.784;2023-06-04T01:32:25;1005.54;;;15.37;57.60
48810;BME280;40070;47.322;18.784;2023-06-04T01:34:28;1005.57;;;15.28;57.57
48810;BME280;40070;47.322;18.784;2023-06-04T01:36:31;1005.53;;;15.14;58.39
48810;BME280;40070;47.322;18.784;2023-06-04T01:38:33;1005.50;;;15.11;58.33
48810;BME280;40070;47.322;18.784;2023-06-04T01:40:36;1005.45;;;15.15;59.18
48810;BME280;40070;47.322;18.784;2023-06-04T01:42:38;1005.45;;;15.32;59.27
48810;BME280;40070;47.322;18.784;2023-06-04T01:44:41;1005.49;;;15.56;58.29
48810;BME280;40070;47.322;18.784;2023-06-04T01:46:43;1005.52;;;15.48;58.01
48810;BME280;40070;47.322;18.784;2023-06-04T01:48:46;1005.48;;;15.25;57.98
48810;BME280;40070;47.322;18.784;2023-06-04T01:50:48;1005.46;;;15.38;56.22
48810;BME280;40070;47.322;18.784;2023-06-04T01:52:51;1005.47;;;15.30;55.68
48810;BME280;40070;47.322;18.784;2023-06-04T01:54:54;1005.47;;;15.36;55.33
48810;BME280;40070;47.322;18.784;2023-06-04T01:56:56;1005.50;;;15.57;55.89
48810;BME280;40070;47.322;18.784;2023-06-04T01:58:59;1005.50;;;15.70;57.03
48810;BME280;40070;47.322;18.784;2023-06-04T02:01:01;1005.49;;;15.77;57.26
48810;BME280;40070;47.322;18.784;2023-06-04T02:03:03;1005.53;;;15.82;57.41
48810;BME280;40070;47.322;18.784;2023-06-04T02:05:06;1005.54;;;15.78;57.88
48810;BME280;40070;47.322;18.784;2023-06-04T02:07:09;1005.52;;;15.78;57.98
48810;BME280;40070;47.322;18.784;2023-06-04T02:09:12;1005.59;;;15.74;58.24
48810;BME280;40070;47.322;18.784;2023-06-04T02:11:15;1005.62;;;15.61;58.08
48810;BME280;40070;47.322;18.784;2023-06-04T02:13:17;1005.63;;;15.70;58.57
48810;BME280;40070;47.322;18.784;2023-06-04T02:15:19;1005.61;;;15.76;59.22
48810;BME280;40070;47.322;18.784;2023-06-04T02:17:22;1005.61;;;15.62;59.95
48810;BME280;40070;47.322;18.784;2023-06-04T02:19:24;1005.63;;;15.83;58.39
48810;BME280;40070;47.322;18.784;2023-06-04T02:21:27;1005.66;;;15.88;57.87
48810;BME280;40070;47.322;18.784;2023-06-04T02:23:29;1005.72;;;15.73;58.87
48810;BME280;40070;47.322;18.784;2023-06-04T02:25:32;1005.70;;;15.88;57.73
48810;BME280;40070;47.322;18.784;2023-06-04T02:27:35;1005.69;;;16.08;55.80
48810;BME280;40070;47.322;18.784;2023-06-04T02:29:40;1005.69;;;16.13;55.47
48810;BME280;40070;47.322;18.784;2023-06-04T02:31:43;1005.66;;;16.00;57.22
48810;BME280;40070;47.322;18.784;2023-06-04T02:33:45;1005.66;;;16.03;56.77
48810;BME280;40070;47.322;18.784;2023-06-04T02:35:48;1005.68;;;16.03;55.35
48810;BME280;40070;47.322;18.784;2023-06-04T02:37:50;1005.71;;;15.93;56.07
48810;BME280;40070;47.322;18.784;2023-06-04T02:39:52;1005.68;;;15.54;57.83
48810;BME280;40070;47.322;18.784;2023-06-04T02:41:55;1005.66;;;15.59;57.79
48810;BME280;40070;47.322;18.784;2023-06-04T02:43:57;1005.64;;;15.76;57.19
48810;BME280;40070;47.322;18.784;2023-06-04T02:46:00;1005.64;;;15.67;58.91
48810;BME280;40070;47.322;18.784;2023-06-04T02:48:02;1005.59;;;15.63;59.14
48810;BME280;40070;47.322;18.784;2023-06-04T02:50:05;1005.59;;;15.64;59.04
48810;BME280;40070;47.322;18.784;2023-06-04T02:52:08;1005.60;;;15.65;59.74
48810;BME280;40070;47.322;18.784;2023-06-04T02:54:10;1005.54;;;15.56;58.76
48810;BME280;40070;47.322;18.784;2023-06-04T02:56:13;1005.56;;;15.44;59.41
48810;BME280;40070;47.322;18.784;2023-06-04T02:58:15;1005.58;;;15.49;59.00
48810;BME280;40070;47.322;18.784;2023-06-04T03:00:18;1005.59;;;15.67;59.02
48810;BME280;40070;47.322;18.784;2023-06-04T03:02:20;1005.54;;;15.33;60.35
48810;BME280;40070;47.322;18.784;2023-06-04T03:04:23;1005.58;;;15.49;59.34
48810;BME280;40070;47.322;18.784;2023-06-04T03:06:25;1005.64;;;15.41;59.61
48810;BME280;40070;47.322;18.784;2023-06-04T03:08:28;1005.63;;;15.50;59.10
48810;BME280;40070;47.322;18.784;2023-06-04T03:10:31;1005.67;;;15.45;58.79
48810;BME280;40070;47.322;18.784;2023-06-04T03:12:33;1005.65;;;15.52;58.63
48810;BME280;40070;47.322;18.784;2023-06-04T03:14:36;1005.64;;;15.30;59.31
48810;BME280;40070;47.322;18.784;2023-06-04T03:16:38;1005.59;;;15.24;59.69
48810;BME280;40070;47.322;18.784;2023-06-04T03:18:41;1005.61;;;14.95;60.35
48810;BME280;40070;47.322;18.784;2023-06-04T03:20:43;1005.65;;;14.90;61.00
48810;BME280;40070;47.322;18.784;2023-06-04T03:22:46;1005.71;;;15.00;60.56
48810;BME280;40070;47.322;18.784;2023-06-04T03:24:48;1005.75;;;15.15;59.84
48810;BME280;40070;47.322;18.784;2023-06-04T03:26:51;1005.72;;;15.35;58.76
48810;BME280;40070;47.322;18.784;2023-06-04T03:28:54;1005.68;;;15.42;59.73
48810;BME280;40070;47.322;18.784;2023-06-04T03:30:56;1005.64;;;15.18;60.47
48810;BME280;40070;47.322;18.784;2023-06-04T03:32:59;1005.62;;;15.02;60.98
48810;BME280;40070;47.322;18.784;2023-06-04T03:35:01;1005.68;;;14.96;60.62
48810;BME280;40070;47.322;18.784;2023-06-04T03:37:04;1005.73;;;15.01;60.40
48810;BME280;40070;47.322;18.784;2023-06-04T03:39:06;1005.74;;;14.90;60.88
48810;BME280;40070;47.322;18.784;2023-06-04T03:41:08;1005.70;;;14.86;60.90
48810;BME280;40070;47.322;18.784;2023-06-04T03:43:11;1005.73;;;14.83;61.47
48810;BME280;40070;47.322;18.784;2023-06-04T03:45:14;1005.82;;;14.90;60.70
48810;BME280;40070;47.322;18.784;2023-06-04T03:47:16;1005.84;;;15.06;60.42
48810;BME280;40070;47.322;18.784;2023-06-04T03:49:19;1005.80;;;15.25;60.26
48810;BME280;40070;47.322;18.784;2023-06-04T03:51:21;1005.81;;;15.12;60.92
48810;BME280;40070;47.322;18.784;2023-06-04T03:53:24;1005.81;;;15.01;61.14
48810;BME280;40070;47.322;18.784;2023-06-04T03:55:26;1005.83;;;15.19;61.47
48810;BME280;40070;47.322;18.784;2023-06-04T03:57:29;1005.89;;;15.51;60.12
48810;BME280;40070;47.322;18.784;2023-06-04T03:59:31;1005.88;;;15.56;60.07
48810;BME280;40070;47.322;18.784;2023-06-04T04:01:34;1005.89;;;15.73;59.49
48810;BME280;40070;47.322;18.784;2023-06-04T04:03:36;1005.87;;;15.41;60.04
48810;BME280;40070;47.322;18.784;2023-06-04T04:05:39;1005.91;;;15.83;59.70
48810;BME280;40070;47.322;18.784;2023-06-04T04:07:41;1005.94;;;15.74;59.85
48810;BME280;40070;47.322;18.784;2023-06-04T04:09:44;1005.97;;;15.91;58.94
48810;BME280;40070;47.322;18.784;2023-06-04T04:11:46;1005.98;;;16.12;58.81
48810;BME280;40070;47.322;18.784;2023-06-04T04:13:49;1005.99;;;16.25;57.98
48810;BME280;40070;47.322;18.784;2023-06-04T04:15:51;1006.00;;;16.42;57.58
48810;BME280;40070;47.322;18.784;2023-06-04T04:17:54;1006.02;;;16.49;57.03
48810;BME280;40070;47.322;18.784;2023-06-04T04:19:57;1006.01;;;16.56;51.99
48810;BME280;40070;47.322;18.784;2023-06-04T04:21:59;1006.04;;;16.64;55.23
48810;BME280;40070;47.322;18.784;2023-06-04T04:24:02;1006.07;;;16.66;55.51
48810;BME280;40070;47.322;18.784;2023-06-04T04:26:05;1006.06;;;16.78;56.81
48810;BME280;40070;47.322;18.784;2023-06-04T04:28:07;1006.08;;;16.75;56.67
48810;BME280;40070;47.322;18.784;2023-06-04T04:30:10;1006.15;;;16.70;58.52
48810;BME280;40070;47.322;18.784;2023-06-04T04:32:13;1006.11;;;16.82;56.87
48810;BME280;40070;47.322;18.784;2023-06-04T04:34:15;1006.10;;;16.85;55.42
48810;BME280;40070;47.322;18.784;2023-06-04T04:36:18;1006.10;;;16.96;54.96
48810;BME280;40070;47.322;18.784;2023-06-04T04:38:21;1006.10;;;17.19;55.68
48810;BME280;40070;47.322;18.784;2023-06-04T04:40:23;1006.18;;;17.05;57.37
48810;BME280;40070;47.322;18.784;2023-06-04T04:42:26;1006.21;;;16.97;57.68
48810;BME280;40070;47.322;18.784;2023-06-04T04:44:28;1006.20;;;17.02;56.48
48810;BME280;40070;47.322;18.784;2023-06-04T04:46:31;1006.24;;;17.01;55.49
48810;BME280;40070;47.322;18.784;2023-06-04T04:48:34;1006.22;;;17.06;57.04
48810;BME280;40070;47.322;18.784;2023-06-04T04:50:36;1006.21;;;17.25;56.03
48810;BME280;40070;47.322;18.784;2023-06-04T04:52:39;1006.25;;;17.20;57.21
48810;BME280;40070;47.322;18.784;2023-06-04T04:54:41;1006.25;;;17.43;55.13
48810;BME280;40070;47.322;18.784;2023-06-04T04:56:44;1006.22;;;17.42;55.24
48810;BME280;40070;47.322;18.784;2023-06-04T04:58:46;1006.21;;;17.57;54.28
48810;BME280;40070;47.322;18.784;2023-06-04T05:00:49;1006.17;;;17.55;53.10
48810;BME280;40070;47.322;18.784;2023-06-04T05:02:52;1006.21;;;17.63;51.33
48810;BME280;40070;47.322;18.784;2023-06-04T05:04:54;1006.19;;;17.72;47.36
48810;BME280;40070;47.322;18.784;2023-06-04T05:06:57;1006.16;;;17.70;46.33
48810;BME280;40070;47.322;18.784;2023-06-04T05:08:59;1006.12;;;17.65;47.65
48810;BME280;40070;47.322;18.784;2023-06-04T05:11:02;1006.11;;;17.88;46.79
48810;BME280;40070;47.322;18.784;2023-06-04T05:13:04;1006.08;;;17.73;46.36
48810;BME280;40070;47.322;18.784;2023-06-04T05:15:07;1006.12;;;17.70;47.56
48810;BME280;40070;47.322;18.784;2023-06-04T05:17:10;1006.11;;;17.62;46.86
48810;BME280;40070;47.322;18.784;2023-06-04T05:19:12;1006.17;;;18.05;46.17
48810;BME280;40070;47.322;18.784;2023-06-04T05:21:15;1006.14;;;17.89;45.75
48810;BME280;40070;47.322;18.784;2023-06-04T05:23:17;1006.13;;;17.96;45.86
48810;BME280;40070;47.322;18.784;2023-06-04T05:25:20;1006.12;;;17.57;47.57
48810;BME280;40070;47.322;18.784;2023-06-04T05:27:22;1006.15;;;17.48;48.74
48810;BME280;40070;47.322;18.784;2023-06-04T05:29:25;1006.17;;;17.56;49.80
48810;BME280;40070;47.322;18.784;2023-06-04T05:31:27;1006.22;;;17.70;48.46
48810;BME280;40070;47.322;18.784;2023-06-04T05:33:30;1006.27;;;17.76;48.73
48810;BME280;40070;47.322;18.784;2023-06-04T05:35:33;1006.36;;;17.74;49.17
48810;BME280;40070;47.322;18.784;2023-06-04T05:37:35;1006.46;;;18.01;48.23
48810;BME280;40070;47.322;18.784;2023-06-04T05:39:38;1006.45;;;18.13;48.74
48810;BME280;40070;47.322;18.784;2023-06-04T05:41:40;1006.46;;;18.21;42.62
48810;BME280;40070;47.322;18.784;2023-06-04T05:43:43;1006.46;;;18.04;42.49
48810;BME280;40070;47.322;18.784;2023-06-04T05:45:45;1006.46;;;18.18;43.01
48810;BME280;40070;47.322;18.784;2023-06-04T05:47:48;1006.45;;;18.28;42.23
48810;BME280;40070;47.322;18.784;2023-06-04T05:49:50;1006.43;;;18.31;44.15
48810;BME280;40070;47.322;18.784;2023-06-04T05:51:53;1006.45;;;18.22;42.52
48810;BME280;40070;47.322;18.784;2023-06-04T05:53:55;1006.47;;;18.30;43.84
48810;BME280;40070;47.322;18.784;2023-06-04T05:55:58;1006.44;;;18.22;43.41
48810;BME280;40070;47.322;18.784;2023-06-04T05:58:00;1006.46;;;17.86;44.73
48810;BME280;40070;47.322;18.784;2023-06-04T06:00:03;1006.48;;;18.37;44.33
48810;BME280;40070;47.322;18.784;2023-06-04T06:02:05;1006.52;;;18.49;43.02
48810;BME280;40070;47.322;18.784;2023-06-04T06:04:08;1006.53;;;18.63;42.33
48810;BME280;40070;47.322;18.784;2023-06-04T06:06:10;1006.58;;;18.31;42.60
48810;BME280;40070;47.322;18.784;2023-06-04T06:08:13;1006.62;;;18.22;44.11
48810;BME280;40070;47.322;18.784;2023-06-04T06:10:16;1006.63;;;18.35;43.71
48810;BME280;40070;47.322;18.784;2023-06-04T06:12:18;1006.65;;;18.62;43.19
48810;BME280;40070;47.322;18.784;2023-06-04T06:14:21;1006.63;;;18.41;42.23
48810;BME280;40070;47.322;18.784;2023-06-04T06:16:23;1006.61;;;18.42;42.65
48810;BME280;40070;47.322;18.784;2023-06-04T06:18:26;1006.61;;;18.57;42.43
48810;BME280;40070;47.322;18.784;2023-06-04T06:20:28;1006.66;;;18.76;42.00
48810;BME280;40070;47.322;18.784;2023-06-04T06:22:31;1006.65;;;18.75;41.66
48810;BME280;40070;47.322;18.784;2023-06-04T06:24:34;1006.64;;;18.85;41.18
48810;BME280;40070;47.322;18.784;2023-06-04T06:26:36;1006.67;;;18.98;41.97
48810;BME280;40070;47.322;18.784;2023-06-04T06:28:39;1006.66;;;18.97;41.89
48810;BME280;40070;47.322;18.784;2023-06-04T06:30:42;1006.70;;;19.05;41.15
48810;BME280;40070;47.322;18.784;2023-06-04T06:32:44;1006.74;;;19.11;40.42
48810;BME280;40070;47.322;18.784;2023-06-04T06:34:47;1006.76;;;18.91;40.55
48810;BME280;40070;47.322;18.784;2023-06-04T06:36:49;1006.77;;;19.03;40.07
48810;BME280;40070;47.322;18.784;2023-06-04T06:38:52;1006.80;;;19.16;39.94
48810;BME280;40070;47.322;18.784;2023-06-04T06:40:54;1006.81;;;19.17;41.18
48810;BME280;40070;47.322;18.784;2023-06-04T06:42:56;1006.81;;;19.19;40.64
48810;BME280;40070;47.322;18.784;2023-06-04T06:44:59;1006.86;;;19.35;40.40
48810;BME280;40070;47.322;18.784;2023-06-04T06:47:01;1006.92;;;19.27;42.21
48810;BME280;40070;47.322;18.784;2023-06-04T06:49:04;1006.91;;;19.15;41.56
48810;BME280;40070;47.322;18.784;2023-06-04T06:51:06;1006.86;;;19.43;41.33
48810;BME280;40070;47.322;18.784;2023-06-04T06:53:09;1006.87;;;19.57;41.95
48810;BME280;40070;47.322;18.784;2023-06-04T06:55:11;1006.83;;;19.46;40.76
48810;BME280;40070;47.322;18.784;2023-06-04T06:57:14;1006.84;;;19.66;40.38
48810;BME280;40070;47.322;18.784;2023-06-04T06:59:16;1006.85;;;19.74;40.91
48810;BME280;40070;47.322;18.784;2023-06-04T07:01:19;1006.87;;;19.87;41.54
48810;BME280;40070;47.322;18.784;2023-06-04T07:03:21;1006.87;;;20.01;41.32
48810;BME280;40070;47.322;18.784;2023-06-04T07:05:24;1006.85;;;20.15;39.83
48810;BME280;40070;47.322;18.784;2023-06-04T07:07:26;1006.84;;;20.08;38.55
48810;BME280;40070;47.322;18.784;2023-06-04T07:09:29;1006.81;;;19.91;39.86
48810;BME280;40070;47.322;18.784;2023-06-04T07:11:31;1006.84;;;19.91;39.61
48810;BME280;40070;47.322;18.784;2023-06-04T07:13:34;1006.85;;;20.24;40.12
48810;BME280;40070;47.322;18.784;2023-06-04T07:15:37;1006.88;;;20.17;38.20
48810;BME280;40070;47.322;18.784;2023-06-04T07:17:39;1006.88;;;20.46;37.88
48810;BME280;40070;47.322;18.784;2023-06-04T07:19:41;1006.92;;;20.66;38.52
48810;BME280;40070;47.322;18.784;2023-06-04T07:21:44;1006.93;;;20.57;40.50
48810;BME280;40070;47.322;18.784;2023-06-04T07:23:47;1006.88;;;20.56;38.96
48810;BME280;40070;47.322;18.784;2023-06-04T07:25:49;1006.85;;;20.81;39.76
48810;BME280;40070;47.322;18.784;2023-06-04T07:27:52;1006.83;;;20.90;38.24
48810;BME280;40070;47.322;18.784;2023-06-04T07:29:54;1006.88;;;20.92;38.49
48810;BME280;40070;47.322;18.784;2023-06-04T07:31:57;1006.86;;;20.90;38.57
48810;BME280;40070;47.322;18.784;2023-06-04T07:33:59;1006.83;;;21.01;39.00
48810;BME280;40070;47.322;18.784;2023-06-04T07:36:02;1006.83;;;20.83;39.26
48810;BME280;40070;47.322;18.784;2023-06-04T07:38:04;1006.82;;;20.87;39.12
48810;BME280;40070;47.322;18.784;2023-06-04T07:40:07;1006.80;;;21.18;38.31
48810;BME280;40070;47.322;18.784;2023-06-04T07:42:09;1006.84;;;21.33;38.82
48810;BME280;40070;47.322;18.784;2023-06-04T07:44:12;1006.81;;;21.42;37.20
48810;BME280;40070;47.322;18.784;2023-06-04T07:46:14;1006.87;;;21.18;37.19
48810;BME280;40070;47.322;18.784;2023-06-04T07:48:17;1006.85;;;21.19;36.42
48810;BME280;40070;47.322;18.784;2023-06-04T07:50:19;1006.88;;;21.06;37.57
48810;BME280;40070;47.322;18.784;2023-06-04T07:52:22;1006.91;;;21.23;38.43
48810;BME280;40070;47.322;18.784;2023-06-04T07:54:24;1006.94;;;21.46;38.41
48810;BME280;40070;47.322;18.784;2023-06-04T07:56:27;1006.91;;;21.32;37.69
48810;BME280;40070;47.322;18.784;2023-06-04T07:58:29;1006.90;;;21.18;38.26
48810;BME280;40070;47.322;18.784;2023-06-04T08:00:32;1006.93;;;21.17;37.88
48810;BME280;40070;47.322;18.784;2023-06-04T08:02:34;1006.92;;;21.15;37.64
48810;BME280;40070;47.322;18.784;2023-06-04T08:04:37;1007.00;;;21.31;38.04
48810;BME280;40070;47.322;18.784;2023-06-04T08:06:39;1007.03;;;21.49;38.71
48810;BME280;40070;47.322;18.784;2023-06-04T08:08:42;1007.06;;;21.37;37.70
48810;BME280;40070;47.322;18.784;2023-06-04T08:10:45;1007.06;;;21.09;37.07
48810;BME280;40070;47.322;18.784;2023-06-04T08:12:48;1007.11;;;20.90;37.94
48810;BME280;40070;47.322;18.784;2023-06-04T08:14:50;1007.08;;;20.82;37.63
48810;BME280;40070;47.322;18.784;2023-06-04T08:16:53;1007.08;;;20.79;40.06
48810;BME280;40070;47.322;18.784;2023-06-04T08:18:55;1007.12;;;20.95;38.59
48810;BME280;40070;47.322;18.784;2023-06-04T08:20:58;1007.13;;;20.60;37.82
48810;BME280;40070;47.322;18.784;2023-06-04T08:23:00;1007.15;;;20.59;38.21
48810;BME280;40070;47.322;18.784;2023-06-04T08:25:03;1007.20;;;20.39;38.91
48810;BME280;40070;47.322;18.784;2023-06-04T08:27:06;1007.16;;;20.47;38.69
48810;BME280;40070;47.322;18.784;2023-06-04T08:29:08;1007.21;;;20.32;41.28
48810;BME280;40070;47.322;18.784;2023-06-04T08:31:11;1007.18;;;20.47;40.53
48810;BME280;40070;47.322;18.784;2023-06-04T08:33:13;1007.16;;;20.36;42.36
48810;BME280;40070;47.322;18.784;2023-06-04T08:35:16;1007.15;;;20.40;40.37
48810;BME280;40070;47.322;18.784;2023-06-04T08:37:18;1007.21;;;20.63;39.72
48810;BME280;40070;47.322;18.784;2023-06-04T08:39:21;1007.19;;;20.56;39.92
48810;BME280;40070;47.322;18.784;2023-06-04T08:43:59;1007.21;;;20.66;41.18
48810;BME280;40070;47.322;18.784;2023-06-04T08:46:03;1007.19;;;20.73;41.80
48810;BME280;40070;47.322;18.784;2023-06-04T08:48:09;1007.16;;;20.91;42.69
48810;BME280;40070;47.322;18.784;2023-06-04T08:50:12;1007.18;;;20.72;43.40
48810;BME280;40070;47.322;18.784;2023-06-04T08:52:15;1007.17;;;20.66;44.10
48810;BME280;40070;47.322;18.784;2023-06-04T08:54:18;1007.14;;;20.87;42.65
48810;BME280;40070;47.322;18.784;2023-06-04T08:56:20;1007.14;;;20.99;42.30
48810;BME280;40070;47.322;18.784;2023-06-04T08:58:23;1007.13;;;20.33;41.60
48810;BME280;40070;47.322;18.784;2023-06-04T09:00:26;1007.12;;;20.34;40.97
48810;BME280;40070;47.322;18.784;2023-06-04T09:02:29;1007.11;;;20.50;40.81
48810;BME280;40070;47.322;18.784;2023-06-04T09:04:31;1007.11;;;20.67;41.18
48810;BME280;40070;47.322;18.784;2023-06-04T09:06:34;1007.07;;;20.83;41.06
48810;BME280;40070;47.322;18.784;2023-06-04T09:08:37;1007.03;;;20.84;41.20
48810;BME280;40070;47.322;18.784;2023-06-04T09:10:42;1007.03;;;20.90;42.08
48810;BME280;40070;47.322;18.784;2023-06-04T09:12:46;1007.04;;;20.93;42.79
48810;BME280;40070;47.322;18.784;2023-06-04T09:14:49;1007.04;;;20.88;41.72
48810;BME280;40070;47.322;18.784;2023-06-04T09:16:52;1007.04;;;20.71;41.94
48810;BME280;40070;47.322;18.784;2023-06-04T09:18:55;1007.05;;;20.85;42.48
48810;BME280;40070;47.322;18.784;2023-06-04T09:21:04;1007.03;;;20.76;43.66
48810;BME280;40070;47.322;18.784;2023-06-04T09:23:15;1007.09;;;20.55;44.19
48810;BME280;40070;47.322;18.784;2023-06-04T09:25:22;1007.10;;;20.76;43.25
48810;BME280;40070;47.322;18.784;2023-06-04T09:27:24;1007.08;;;20.84;44.23
48810;BME280;40070;47.322;18.784;2023-06-04T09:29:27;1007.09;;;20.73;44.25
48810;BME280;40070;47.322;18.784;2023-06-04T09:31:29;1007.04;;;20.54;42.62
48810;BME280;40070;47.322;18.784;2023-06-04T09:33:41;1007.07;;;20.73;42.61
48810;BME280;40070;47.322;18.784;2023-06-04T09:35:52;1007.05;;;20.57;43.42
48810;BME280;40070;47.322;18.784;2023-06-04T09:37:55;1007.02;;;20.69;40.88
48810;BME280;40070;47.322;18.784;2023-06-04T09:39:58;1007.07;;;20.84;42.62
48810;BME280;40070;47.322;18.784;2023-06-04T09:42:00;1007.05;;;20.74;41.00
48810;BME280;40070;47.322;18.784;2023-06-04T09:44:03;1007.04;;;20.47;43.26
48810;BME280;40070;47.322;18.784;2023-06-04T09:46:09;1007.05;;;20.30;44.46
48810;BME280;40070;47.322;18.784;2023-06-04T09:48:18;1007.08;;;20.67;43.98
48810;BME280;40070;47.322;18.784;2023-06-04T09:50:30;1007.15;;;20.80;43.35
48810;BME280;40070;47.322;18.784;2023-06-04T09:52:33;1007.15;;;20.79;44.46
48810;BME280;40070;47.322;18.784;2023-06-04T09:54:36;1007.15;;;20.90;44.47
48810;BME280;40070;47.322;18.784;2023-06-04T09:56:41;1007.15;;;20.85;41.14
48810;BME280;40070;47.322;18.784;2023-06-04T09:58:44;1007.19;;;21.04;40.21
48810;BME280;40070;47.322;18.784;2023-06-04T10:00:48;1007.19;;;21.22;42.16
48810;BME280;40070;47.322;18.784;2023-06-04T10:02:56;1007.15;;;21.17;42.61
48810;BME280;40070;47.322;18.784;2023-06-04T10:04:58;1007.13;;;21.11;45.73
48810;BME280;40070;47.322;18.784;2023-06-04T10:07:03;1007.14;;;21.08;44.13
48810;BME280;40070;47.322;18.784;2023-06-04T10:09:07;1007.13;;;21.05;44.16
48810;BME280;40070;47.322;18.784;2023-06-04T10:11:10;1007.12;;;21.21;41.55
48810;BME280;40070;47.322;18.784;2023-06-04T10:13:19;1007.13;;;21.07;42.39
48810;BME280;40070;47.322;18.784;2023-06-04T10:15:22;1007.13;;;21.15;44.34
48810;BME280;40070;47.322;18.784;2023-06-04T10:17:25;1007.14;;;21.12;45.07
48810;BME280;40070;47.322;18.784;2023-06-04T10:19:28;1007.13;;;21.22;44.09
48810;BME280;40070;47.322;18.784;2023-06-04T10:21:31;1007.11;;;21.03;46.54
48810;BME280;40070;47.322;18.784;2023-06-04T10:23:34;1007.10;;;20.91;44.05
48810;BME280;40070;47.322;18.784;2023-06-04T10:25:37;1007.08;;;21.00;43.53
48810;BME280;40070;47.322;18.784;2023-06-04T10:27:40;1007.10;;;20.76;43.86
48810;BME280;40070;47.322;18.784;2023-06-04T10:29:42;1007.05;;;20.90;43.10
48810;BME280;40070;47.322;18.784;2023-06-04T10:31:45;1007.07;;;21.07;43.75
48810;BME280;40070;47.322;18.784;2023-06-04T10:33:47;1007.18;;;20.70;47.34
48810;BME280;40070;47.322;18.784;2023-06-04T10:35:53;1007.16;;;20.95;45.16
48810;BME280;40070;47.322;18.784;2023-06-04T10:38:04;1007.13;;;20.72;46.16
48810;BME280;40070;47.322;18.784;2023-06-04T10:40:06;1007.14;;;20.67;46.80
48810;BME280;40070;47.322;18.784;2023-06-04T10:42:09;1007.15;;;20.89;44.19
48810;BME280;40070;47.322;18.784;2023-06-04T10:44:11;1007.13;;;21.07;44.67
48810;BME280;40070;47.322;18.784;2023-06-04T10:46:16;1007.11;;;21.05;43.81
48810;BME280;40070;47.322;18.784;2023-06-04T10:48:18;1007.11;;;20.95;47.27
48810;BME280;40070;47.322;18.784;2023-06-04T10:50:21;1007.10;;;21.10;45.54
48810;BME280;40070;47.322;18.784;2023-06-04T10:52:23;1007.07;;;21.14;46.79
48810;BME280;40070;47.322;18.784;2023-06-04T10:54:26;1007.06;;;21.13;46.40